createdAt,value
2019-01-18T00:00:19.014Z,100.00
2019-01-18T00:02:52.056Z,100.00
2019-01-18T00:05:25.629Z,100.00
2019-01-18T00:07:59.016Z,100.00
2019-01-18T00:10:32.296Z,100.00
2019-01-18T00:13:06.422Z,100.00
2019-01-18T00:15:39.879Z,100.00
2019-01-18T00:18:12.813Z,100.00
2019-01-18T00:20:47.752Z,100.00
2019-01-18T00:23:22.883Z,100.00
2019-01-18T00:25:55.894Z,100.00
2019-01-18T00:28:29.702Z,100.00
2019-01-18T00:31:02.784Z,100.00
2019-01-18T00:33:36.443Z,100.00
2019-01-18T00:36:09.510Z,100.00
2019-01-18T00:38:42.416Z,100.00
2019-01-18T00:41:16.522Z,100.00
2019-01-18T00:43:49.452Z,100.00
2019-01-18T00:46:22.380Z,100.00
2019-01-18T00:48:55.905Z,100.00
2019-01-18T00:51:29.425Z,100.00
2019-01-18T00:54:03.864Z,100.00
2019-01-18T00:56:38.258Z,100.00
2019-01-18T00:59:11.351Z,100.00
2019-01-18T01:01:44.211Z,100.00
2019-01-18T01:04:19.117Z,100.00
2019-01-18T01:06:53.633Z,100.00
2019-01-18T01:09:26.676Z,100.00
2019-01-18T01:12:00.749Z,100.00
2019-01-18T01:14:34.281Z,100.00
2019-01-18T01:17:08.530Z,100.00
2019-01-18T01:19:42.109Z,100.00
2019-01-18T01:22:15.113Z,100.00
2019-01-18T01:24:48.105Z,100.00
2019-01-18T01:27:23.105Z,100.00
2019-01-18T01:29:56.130Z,100.00
2019-01-18T01:32:29.258Z,100.00
2019-01-18T01:35:03.710Z,100.00
2019-01-18T01:37:37.341Z,100.00
2019-01-18T01:40:16.200Z,100.00
2019-01-18T01:42:49.848Z,100.00
2019-01-18T01:45:24.240Z,100.00
2019-01-18T01:47:57.867Z,100.00
2019-01-18T01:50:32.323Z,100.00
2019-01-18T01:53:05.742Z,100.00
2019-01-18T01:55:38.769Z,100.00
2019-01-18T01:58:12.241Z,100.00
2019-01-18T02:00:45.256Z,100.00
2019-01-18T02:03:18.266Z,100.00
2019-01-18T02:05:52.698Z,100.00
2019-01-18T02:08:25.617Z,100.00
2019-01-18T02:10:58.706Z,100.00
2019-01-18T02:13:32.112Z,100.00
2019-01-18T02:16:05.808Z,100.00
2019-01-18T02:18:38.737Z,100.00
2019-01-18T02:21:12.384Z,100.00
2019-01-18T02:23:45.311Z,100.00
2019-01-18T02:26:20.147Z,100.00
2019-01-18T02:28:53.611Z,100.00
2019-01-18T02:31:26.795Z,100.00
2019-01-18T02:33:59.753Z,100.00
2019-01-18T02:36:33.303Z,100.00
2019-01-18T02:39:08.654Z,100.00
2019-01-18T02:41:41.778Z,100.00
2019-01-18T02:44:16.025Z,100.00
2019-01-18T02:46:48.946Z,100.00
2019-01-18T02:49:22.591Z,100.00
2019-01-18T02:51:57.089Z,100.00
2019-01-18T02:54:30.166Z,100.00
2019-01-18T02:57:03.237Z,100.00
2019-01-18T02:59:36.768Z,100.00
2019-01-18T03:02:09.671Z,100.00
2019-01-18T03:04:42.656Z,100.00
2019-01-18T03:07:16.050Z,100.00
2019-01-18T03:09:49.054Z,100.00
2019-01-18T03:12:22.050Z,100.00
2019-01-18T03:14:55.316Z,100.00
2019-01-18T03:17:28.181Z,100.00
2019-01-18T03:20:02.097Z,100.00
2019-01-18T03:22:35.644Z,100.00
2019-01-18T03:25:14.798Z,100.00
2019-01-18T03:27:47.723Z,100.00
2019-01-18T03:30:21.593Z,100.00
2019-01-18T03:32:54.695Z,100.00
2019-01-18T03:35:27.703Z,100.00
2019-01-18T03:38:00.999Z,100.00
2019-01-18T03:40:34.112Z,99.94
2019-01-18T03:43:07.011Z,99.81
2019-01-18T03:45:40.368Z,99.76
2019-01-18T03:48:13.304Z,99.72
2019-01-18T03:50:46.199Z,99.56
2019-01-18T03:53:19.631Z,99.39
2019-01-18T03:55:52.610Z,99.30
2019-01-18T03:58:25.612Z,99.20
2019-01-18T04:00:59.993Z,99.15
2019-01-18T04:03:33.003Z,99.12
2019-01-18T04:06:06.231Z,99.08
2019-01-18T04:08:39.870Z,99.05
2019-01-18T04:11:12.758Z,99.03
2019-01-18T04:13:45.855Z,98.98
2019-01-18T04:16:20.984Z,98.91
2019-01-18T04:18:53.979Z,98.91
2019-01-18T04:21:27.773Z,98.90
2019-01-18T04:24:03.308Z,98.94
2019-01-18T04:26:38.202Z,98.97
2019-01-18T04:29:11.412Z,98.97
2019-01-18T04:31:44.937Z,99.00
2019-01-18T04:34:18.222Z,99.02
2019-01-18T04:36:51.117Z,99.05
2019-01-18T04:39:25.088Z,99.05
2019-01-18T04:41:58.734Z,99.05
2019-01-18T04:44:31.747Z,99.04
2019-01-18T04:47:05.323Z,98.96
2019-01-18T04:49:40.770Z,98.79
2019-01-18T04:52:14.336Z,98.52
2019-01-18T04:54:47.303Z,98.15
2019-01-18T04:57:21.443Z,97.85
2019-01-18T04:59:54.333Z,97.64
2019-01-18T05:02:27.425Z,97.50
2019-01-18T05:05:00.921Z,97.22
2019-01-18T05:07:35.224Z,96.87
2019-01-18T05:10:10.338Z,96.54
2019-01-18T05:12:43.957Z,96.02
2019-01-18T05:15:20.885Z,95.84
2019-01-18T05:17:54.844Z,95.85
2019-01-18T05:20:28.655Z,95.98
2019-01-18T05:23:01.755Z,96.17
2019-01-18T05:25:34.643Z,96.35
2019-01-18T05:28:11.112Z,96.44
2019-01-18T05:30:47.592Z,96.60
2019-01-18T05:33:21.244Z,96.59
2019-01-18T05:35:54.648Z,96.50
2019-01-18T05:38:27.692Z,96.42
2019-01-18T05:41:00.940Z,96.15
2019-01-18T05:43:35.244Z,95.75
2019-01-18T05:46:08.482Z,95.23
2019-01-18T05:48:41.632Z,95.07
2019-01-18T05:51:15.886Z,94.95
2019-01-18T05:53:49.496Z,95.31
2019-01-18T05:56:23.145Z,95.70
2019-01-18T05:59:01.812Z,95.80
2019-01-18T06:01:34.743Z,95.94
2019-01-18T06:04:07.874Z,96.19
2019-01-18T06:06:42.023Z,96.00
2019-01-18T06:09:15.104Z,95.91
2019-01-18T06:11:48.794Z,95.87
2019-01-18T06:14:24.602Z,96.19
2019-01-18T06:16:57.821Z,96.44
2019-01-18T06:19:32.674Z,96.71
2019-01-18T06:22:06.509Z,97.12
2019-01-18T06:24:39.652Z,97.47
2019-01-18T06:27:12.570Z,97.94
2019-01-18T06:29:47.180Z,98.36
2019-01-18T06:32:20.154Z,98.67
2019-01-18T06:34:53.518Z,98.92
2019-01-18T06:37:26.364Z,99.06
2019-01-18T06:39:59.383Z,99.17
2019-01-18T06:42:32.463Z,99.31
2019-01-18T06:45:13.082Z,99.33
2019-01-18T06:47:47.444Z,99.43
2019-01-18T06:50:23.933Z,100.00
2019-01-18T06:52:57.219Z,99.97
2019-01-18T06:55:30.684Z,99.75
2019-01-18T06:58:04.919Z,99.39
2019-01-18T07:00:38.367Z,99.08
2019-01-18T07:03:12.174Z,98.97
2019-01-18T07:05:45.968Z,98.63
2019-01-18T07:08:19.049Z,98.45
2019-01-18T07:10:52.564Z,98.40
2019-01-18T07:13:26.518Z,98.59
2019-01-18T07:15:59.605Z,98.59
2019-01-18T07:18:36.008Z,98.47
2019-01-18T07:21:10.393Z,98.51
2019-01-18T07:23:43.983Z,98.69
2019-01-18T07:26:17.820Z,99.01
2019-01-18T07:28:52.728Z,99.32
2019-01-18T07:31:27.060Z,99.51
2019-01-18T07:34:00.769Z,99.61
2019-01-18T07:36:34.005Z,99.85
2019-01-18T07:39:09.441Z,99.98
2019-01-18T07:41:42.527Z,100.00
2019-01-18T07:44:18.327Z,100.00
2019-01-18T07:46:55.125Z,100.00
2019-01-18T07:49:30.671Z,100.00
2019-01-18T07:52:08.550Z,100.00
2019-01-18T07:54:49.631Z,100.00
2019-01-18T07:57:23.308Z,100.00
2019-01-18T07:59:56.788Z,100.00
2019-01-18T08:02:30.723Z,100.00
2019-01-18T08:05:05.238Z,100.00
2019-01-18T08:07:42.230Z,100.00
2019-01-18T08:10:17.924Z,100.00
2019-01-18T08:12:50.980Z,100.00
2019-01-18T08:15:29.085Z,100.00
2019-01-18T08:18:02.653Z,100.00
2019-01-18T08:20:37.358Z,100.00
2019-01-18T08:23:12.699Z,100.00
2019-01-18T08:25:45.869Z,100.00
2019-01-18T08:28:19.910Z,100.00
2019-01-18T08:30:53.756Z,100.00
2019-01-18T08:33:27.371Z,100.00
2019-01-18T08:36:03.689Z,100.00
2019-01-18T08:38:39.373Z,100.00
2019-01-18T08:41:12.654Z,100.00
2019-01-18T08:43:46.169Z,100.00
2019-01-18T08:46:20.693Z,100.00
2019-01-18T08:48:55.236Z,100.00
2019-01-18T08:51:28.779Z,100.00
2019-01-18T08:54:04.790Z,100.00
2019-01-18T08:56:39.570Z,100.00
2019-01-18T08:59:15.887Z,100.00
2019-01-18T09:01:49.202Z,100.00
2019-01-18T09:04:23.527Z,100.00
2019-01-18T09:06:57.205Z,100.00
2019-01-18T09:09:32.072Z,100.00
2019-01-18T09:12:09.371Z,100.00
2019-01-18T09:14:43.866Z,100.00
2019-01-18T09:17:19.559Z,100.00
2019-01-18T09:19:54.192Z,100.00
2019-01-18T09:22:29.797Z,100.00
2019-01-18T09:25:05.247Z,100.00
2019-01-18T09:27:43.765Z,100.00
2019-01-18T09:30:24.520Z,100.00
2019-01-18T09:32:58.805Z,100.00
2019-01-18T09:35:34.752Z,100.00
2019-01-18T09:38:17.868Z,100.00
2019-01-18T09:40:51.401Z,100.00
2019-01-18T09:43:27.251Z,100.00
2019-01-18T09:46:00.505Z,100.00
2019-01-18T09:48:38.996Z,100.00
2019-01-18T09:51:13.953Z,100.00
2019-01-18T09:53:52.281Z,100.00
2019-01-18T09:56:30.834Z,100.00
2019-01-18T09:59:09.672Z,100.00
2019-01-18T10:01:49.224Z,100.00
2019-01-18T10:04:38.317Z,100.00
2019-01-18T10:07:14.748Z,100.00
2019-01-18T10:09:51.160Z,100.00
2019-01-18T10:12:30.267Z,100.00
2019-01-18T10:15:14.412Z,100.00
2019-01-18T10:17:48.397Z,100.00
2019-01-18T10:20:24.935Z,100.00
2019-01-18T10:23:00.079Z,100.00
2019-01-18T10:25:33.755Z,100.00
2019-01-18T10:28:11.635Z,100.00
2019-01-18T10:30:47.813Z,100.00
2019-01-18T10:33:21.159Z,100.00
2019-01-18T10:36:09.347Z,100.00
2019-01-18T10:38:46.100Z,100.00
2019-01-18T10:41:48.695Z,100.00
2019-01-18T10:44:24.671Z,100.00
2019-01-18T10:46:59.164Z,100.00
2019-01-18T10:49:36.484Z,100.00
2019-01-18T10:52:11.435Z,100.00
2019-01-18T10:54:45.684Z,100.00
2019-01-18T10:57:20.326Z,100.00
2019-01-18T10:59:55.583Z,100.00
2019-01-18T11:02:32.259Z,100.00
2019-01-18T11:05:08.509Z,100.00
2019-01-18T11:07:48.091Z,100.00
2019-01-18T11:10:22.423Z,100.00
2019-01-18T11:12:57.846Z,100.00
2019-01-18T11:15:36.255Z,100.00
2019-01-18T11:18:10.458Z,100.00
2019-01-18T11:21:03.801Z,100.00
2019-01-18T11:23:39.549Z,100.00
2019-01-18T11:26:13.675Z,100.00
2019-01-18T11:28:47.203Z,100.00
2019-01-18T11:31:24.089Z,100.00
2019-01-18T11:33:58.485Z,100.00
2019-01-18T11:36:33.221Z,100.00
2019-01-18T11:39:12.456Z,100.00
2019-01-18T11:41:50.612Z,100.00
2019-01-18T11:44:25.632Z,100.00
2019-01-18T11:47:04.605Z,100.00
2019-01-18T11:49:39.316Z,100.00
2019-01-18T11:52:15.056Z,99.14
2019-01-18T11:54:50.005Z,95.74
2019-01-18T11:57:30.749Z,92.83
2019-01-18T12:00:08.377Z,92.14
2019-01-18T12:02:47.093Z,91.65
2019-01-18T12:05:20.823Z,90.02
2019-01-18T12:08:01.621Z,88.04
2019-01-18T12:10:44.206Z,87.12
2019-01-18T12:13:27.075Z,87.40
2019-01-18T12:16:07.645Z,86.79
2019-01-18T12:18:41.626Z,86.35
2019-01-18T12:21:15.362Z,86.09
2019-01-18T12:23:49.428Z,84.66
2019-01-18T12:26:28.478Z,83.13
2019-01-18T12:29:03.100Z,80.16
2019-01-18T12:31:40.861Z,80.10
2019-01-18T12:34:15.089Z,80.22
2019-01-18T12:36:59.006Z,79.28
2019-01-18T12:39:34.998Z,79.26
2019-01-18T12:42:08.409Z,79.83
2019-01-18T12:44:44.564Z,79.41
2019-01-18T12:47:19.398Z,77.48
2019-01-18T12:49:54.988Z,77.24
2019-01-18T12:52:29.986Z,76.62
2019-01-18T12:55:04.842Z,77.29
2019-01-18T12:57:40.034Z,78.28
2019-01-18T13:00:21.304Z,79.05
2019-01-18T13:02:56.261Z,76.04
2019-01-18T13:05:38.267Z,76.25
2019-01-18T13:08:11.322Z,76.01
2019-01-18T13:10:48.392Z,74.79
2019-01-18T13:13:25.516Z,75.07
2019-01-18T13:16:29.951Z,71.74
2019-01-18T13:19:22.899Z,72.41
2019-01-18T13:22:00.174Z,72.35
2019-01-18T13:24:38.021Z,72.39
2019-01-18T13:27:12.983Z,72.71
2019-01-18T13:29:46.474Z,71.32
2019-01-18T13:32:20.342Z,69.48
2019-01-18T13:34:56.368Z,69.66
2019-01-18T13:37:31.753Z,68.21
2019-01-18T13:40:13.600Z,68.53
2019-01-18T13:42:47.698Z,67.23
2019-01-18T13:45:24.392Z,67.19
2019-01-18T13:47:59.620Z,67.71
2019-01-18T13:50:33.493Z,65.94
2019-01-18T13:53:08.653Z,65.42
2019-01-18T13:55:42.632Z,63.38
2019-01-18T13:58:16.649Z,64.90
2019-01-18T14:00:51.993Z,67.52
2019-01-18T14:03:26.502Z,68.29
2019-01-18T14:06:01.856Z,69.56
2019-01-18T14:08:34.976Z,71.64
2019-01-18T14:11:20.120Z,72.44
2019-01-18T14:13:53.684Z,72.15
2019-01-18T14:16:28.920Z,72.86
2019-01-18T14:19:02.521Z,73.46
2019-01-18T14:21:39.537Z,74.02
2019-01-18T14:24:15.737Z,74.85
2019-01-18T14:26:55.325Z,75.53
2019-01-18T14:29:30.086Z,76.66
2019-01-18T14:32:05.675Z,77.68
2019-01-18T14:34:39.657Z,78.54
2019-01-18T14:37:16.617Z,79.41
2019-01-18T14:39:51.998Z,79.88
2019-01-18T14:42:25.088Z,79.95
2019-01-18T14:45:00.342Z,80.45
2019-01-18T14:47:36.321Z,80.49
2019-01-18T14:50:17.932Z,80.63
2019-01-18T14:52:59.360Z,81.50
2019-01-18T14:55:32.713Z,82.14
2019-01-18T14:58:11.489Z,82.88
2019-01-18T15:00:52.350Z,83.59
2019-01-18T15:03:30.943Z,84.02
2019-01-18T15:06:10.090Z,84.64
2019-01-18T15:08:48.322Z,85.21
2019-01-18T15:11:23.798Z,85.46
2019-01-18T15:13:57.756Z,85.89
2019-01-18T15:16:35.674Z,86.27
2019-01-18T15:19:09.864Z,86.57
2019-01-18T15:21:43.456Z,86.89
2019-01-18T15:24:21.331Z,87.32
2019-01-18T15:26:56.444Z,87.74
2019-01-18T15:29:35.265Z,87.94
2019-01-18T15:32:11.533Z,88.37
2019-01-18T15:34:45.661Z,88.72
2019-01-18T15:37:22.574Z,88.94
2019-01-18T15:39:55.490Z,89.23
2019-01-18T15:42:28.675Z,89.42
2019-01-18T15:45:07.973Z,89.61
2019-01-18T15:47:47.253Z,89.91
2019-01-18T15:50:31.612Z,90.06
2019-01-18T15:53:06.861Z,90.28
2019-01-18T15:55:42.911Z,90.45
2019-01-18T15:58:18.439Z,90.67
2019-01-18T16:00:54.986Z,90.81
2019-01-18T16:03:30.380Z,91.07
2019-01-18T16:06:04.566Z,91.27
2019-01-18T16:08:40.420Z,91.59
2019-01-18T16:11:14.899Z,91.98
2019-01-18T16:13:47.958Z,92.06
2019-01-18T16:16:51.396Z,92.15
2019-01-18T16:19:45.636Z,92.44
2019-01-18T16:22:21.260Z,92.65
2019-01-18T16:24:54.758Z,92.82
2019-01-18T16:27:31.546Z,93.31
2019-01-18T16:30:18.542Z,93.31
2019-01-18T16:32:51.736Z,93.33
2019-01-18T16:35:28.200Z,93.38
2019-01-18T16:38:02.212Z,93.62
2019-01-18T16:40:36.554Z,93.87
2019-01-18T16:43:22.892Z,93.94
2019-01-18T16:45:58.477Z,94.13
2019-01-18T16:48:32.499Z,94.36
2019-01-18T16:51:06.381Z,94.52
2019-01-18T16:53:40.828Z,95.17
2019-01-18T16:56:19.338Z,95.04
2019-01-18T16:58:52.317Z,94.87
2019-01-18T17:01:27.159Z,94.75
2019-01-18T17:04:02.046Z,94.75
2019-01-18T17:06:36.989Z,94.83
2019-01-18T17:09:10.380Z,94.95
2019-01-18T17:11:46.573Z,95.05
2019-01-18T17:14:21.272Z,95.19
2019-01-18T17:16:55.972Z,95.39
2019-01-18T17:19:33.563Z,95.49
2019-01-18T17:22:07.664Z,95.55
2019-01-18T17:24:41.195Z,95.66
2019-01-18T17:27:16.278Z,95.76
2019-01-18T17:29:52.378Z,95.71
2019-01-18T17:32:26.581Z,95.74
2019-01-18T17:35:01.422Z,95.70
2019-01-18T17:37:42.801Z,95.72
2019-01-18T17:40:46.122Z,95.68
2019-01-18T17:44:14.211Z,95.77
2019-01-18T17:47:09.706Z,95.79
2019-01-18T17:50:47.867Z,95.74
2019-01-18T17:54:16.330Z,95.74
2019-01-18T17:57:40.657Z,95.72
2019-01-18T18:01:10.481Z,95.92
2019-01-18T18:04:22.443Z,96.07
2019-01-18T18:07:51.482Z,96.16
2019-01-18T18:11:21.609Z,96.30
2019-01-18T18:15:05.533Z,96.23
2019-01-18T18:18:17.342Z,96.27
2019-01-18T18:21:40.169Z,96.16
2019-01-18T18:24:51.390Z,96.03
2019-01-18T18:28:33.393Z,96.21
2019-01-18T18:31:29.855Z,96.23
2019-01-18T18:34:48.227Z,96.10
2019-01-18T18:38:22.908Z,96.12
2019-01-18T18:41:59.500Z,96.20
2019-01-18T18:45:13.580Z,95.92
2019-01-18T18:48:13.116Z,95.64
2019-01-18T18:51:28.760Z,95.32
2019-01-18T18:54:56.004Z,95.27
2019-01-18T18:58:22.954Z,94.90
2019-01-18T19:01:35.469Z,94.74
2019-01-18T19:04:43.681Z,94.46
2019-01-18T19:08:16.073Z,94.25
2019-01-18T19:11:34.415Z,93.93
2019-01-18T19:14:58.810Z,93.98
2019-01-18T19:18:33.126Z,94.12
2019-01-18T19:22:07.157Z,94.06
2019-01-18T19:25:29.076Z,94.30
2019-01-18T19:29:00.645Z,94.53
2019-01-18T19:32:29.305Z,94.80
2019-01-18T19:36:00.488Z,94.99
2019-01-18T19:39:15.718Z,94.86
2019-01-18T19:42:24.219Z,94.75
2019-01-18T19:45:44.293Z,94.58
2019-01-18T19:49:03.661Z,94.69
2019-01-18T19:52:20.145Z,94.69
2019-01-18T19:55:21.909Z,94.69
2019-01-18T19:58:41.358Z,94.86
2019-01-18T20:01:36.471Z,94.92
2019-01-18T20:05:04.602Z,94.93
2019-01-18T20:08:10.517Z,94.84
2019-01-18T20:11:12.774Z,94.77
2019-01-18T20:15:06.424Z,94.66
2019-01-18T20:18:33.334Z,94.54
2019-01-18T20:21:48.496Z,94.50
2019-01-18T20:25:16.172Z,94.60
2019-01-18T20:28:29.502Z,94.75
2019-01-18T20:32:02.682Z,95.00
2019-01-18T20:35:55.590Z,95.11
2019-01-18T20:39:41.213Z,95.30
2019-01-18T20:42:56.639Z,95.43
2019-01-18T20:46:21.215Z,95.58
2019-01-18T20:49:41.122Z,95.92
2019-01-18T20:53:15.139Z,96.07
2019-01-18T20:56:28.902Z,96.17
2019-01-18T20:59:58.503Z,96.23
2019-01-18T21:03:55.146Z,96.23
2019-01-18T21:07:01.373Z,96.12
2019-01-18T21:10:04.299Z,96.10
2019-01-18T21:13:35.770Z,96.19
2019-01-18T21:16:40.821Z,95.92
2019-01-18T21:20:12.664Z,95.92
2019-01-18T21:23:26.612Z,95.83
2019-01-18T21:26:53.844Z,95.98
2019-01-18T21:30:25.425Z,96.03
2019-01-18T21:33:48.475Z,95.99
2019-01-18T21:37:03.603Z,95.96
2019-01-18T21:40:32.329Z,96.11
2019-01-18T21:43:53.948Z,96.10
2019-01-18T21:46:55.252Z,96.02
2019-01-18T21:50:26.395Z,96.01
2019-01-18T21:53:40.841Z,96.11
2019-01-18T21:56:57.368Z,96.08
2019-01-18T22:00:30.382Z,95.98
2019-01-18T22:03:57.491Z,95.95
2019-01-18T22:07:05.351Z,95.94
2019-01-18T22:10:23.727Z,95.89
2019-01-18T22:13:51.691Z,95.83
2019-01-18T22:17:21.333Z,95.67
2019-01-18T22:20:42.075Z,95.81
2019-01-18T22:24:01.498Z,95.83
2019-01-18T22:27:42.743Z,95.99
2019-01-18T22:30:54.730Z,96.11
2019-01-18T22:33:53.777Z,96.38
2019-01-18T22:37:21.231Z,96.44
2019-01-18T22:40:55.952Z,96.31
2019-01-18T22:44:05.258Z,96.29
2019-01-18T22:47:02.792Z,96.27
2019-01-18T22:49:58.292Z,96.30
2019-01-18T22:53:33.782Z,96.29
2019-01-18T22:57:13.745Z,96.25
2019-01-18T23:00:31.483Z,96.23
2019-01-18T23:03:48.440Z,96.35
2019-01-18T23:07:34.768Z,96.39
2019-01-18T23:11:20.722Z,96.38
2019-01-18T23:14:40.003Z,96.49
2019-01-18T23:18:08.146Z,96.53
2019-01-18T23:21:27.620Z,96.42
2019-01-18T23:24:26.613Z,96.54
2019-01-18T23:27:27.113Z,96.64
2019-01-18T23:30:42.473Z,96.66
2019-01-18T23:33:52.492Z,96.62
2019-01-18T23:37:03.182Z,96.57
2019-01-18T23:40:24.066Z,96.51
2019-01-18T23:43:40.275Z,96.39
2019-01-18T23:47:03.634Z,96.58
2019-01-18T23:50:00.473Z,96.42
2019-01-18T23:53:15.647Z,96.41
2019-01-18T23:56:30.477Z,96.46
2019-01-18T23:59:35.877Z,96.35
